Barbers Point NAS, Hawaii
Current Conditions -  °F | °C
As of 7:53 AM on Friday 31 Oct 2014 (Local Time) from PHJR Reporting Station
Few Clouds Few Clouds  
Wind Chill: 77°   Ceiling: Unl
Heat Index: 79°   Visibility: 10mi
Dew Point: 69°   Wind: 0mph
Humidity: 76%   Direction: NA
Pressure: 30.08"   Gusts: NA
Location:  21.32°N, 158.08°W
Report Text: PHJR 311753Z 00000KT 10SM FEW045 25/21 A3008 RMK AO2 SLP191 T02500206 10250 20206 53016
Loading
Personal Weather Stations






























Interactive Weather Map
Tropical Storm Tracking
New forecast layout! Learn more

10-Day Weather Forecast

Advertisements
Track Severe Weather on mobile